Time;durP1;ratioP1;P1;durP2;ratioP2;P2;SDS_P1;SDS_P2;PMS_P1;PMS_P2;Temp;Humidity;BMP_temperature;BMP_pressure;BME280_temperature;BME280_humidity;BME280_pressure;Samples;Min_cycle;Max_cycle;Signal;HPM_P1;HPM_P2
2024/03/23 00:00:14;;;;;;;9.97;6.50;;;;;;;8.30;100.00;100191.28;5024428;28;20294;-73
2024/03/23 00:02:44;;;;;;;10.30;6.17;;;;;;;8.28;100.00;100180.75;5023504;28;20258;-75
2024/03/23 00:05:14;;;;;;;12.30;6.30;;;;;;;8.28;100.00;100183.41;5025479;28;20290;-73
2024/03/23 00:07:44;;;;;;;10.37;6.10;;;;;;;8.26;100.00;100192.41;5023794;28;20268;-73
2024/03/23 00:10:14;;;;;;;10.90;6.53;;;;;;;8.26;100.00;100179.97;5021931;28;20203;-72
2024/03/23 00:12:44;;;;;;;12.83;6.90;;;;;;;8.27;100.00;100176.38;5025471;28;20222;-74
2024/03/23 00:15:13;;;;;;;10.53;6.20;;;;;;;8.27;100.00;100172.88;5025223;28;20289;-73
2024/03/23 00:17:44;;;;;;;13.30;6.27;;;;;;;8.25;100.00;100172.13;5022705;28;20198;-74
2024/03/23 00:20:13;;;;;;;10.83;5.70;;;;;;;8.20;100.00;100163.63;5027577;28;20745;-74
2024/03/23 00:22:43;;;;;;;11.93;5.37;;;;;;;8.12;100.00;100161.41;5022926;28;20638;-73
2024/03/23 00:25:13;;;;;;;8.30;5.70;;;;;;;8.05;100.00;100157.44;5026308;28;20645;-74
2024/03/23 00:27:43;;;;;;;9.23;5.50;;;;;;;8.01;100.00;100163.88;5023337;28;20226;-73
2024/03/23 00:30:12;;;;;;;7.93;5.33;;;;;;;7.99;100.00;100156.00;5028275;28;20206;-74
2024/03/23 00:32:43;;;;;;;11.30;6.20;;;;;;;7.99;100.00;100139.25;5021558;28;20229;-74
2024/03/23 00:35:12;;;;;;;10.13;6.13;;;;;;;8.00;100.00;100133.84;5023048;28;20233;-73
2024/03/23 00:37:42;;;;;;;9.23;4.90;;;;;;;7.97;100.00;100139.34;5024513;28;20207;-74
2024/03/23 00:40:13;;;;;;;9.73;3.90;;;;;;;7.94;100.00;100131.56;5025379;28;20305;-73
2024/03/23 00:42:43;;;;;;;9.13;3.40;;;;;;;7.93;100.00;100126.34;5027472;28;20238;-74
2024/03/23 00:45:12;;;;;;;9.20;3.17;;;;;;;7.91;100.00;100117.63;5025184;28;20210;-74
2024/03/23 00:47:43;;;;;;;9.30;3.33;;;;;;;7.90;100.00;100119.44;5023832;28;20229;-73
2024/03/23 00:50:12;;;;;;;8.87;3.83;;;;;;;7.90;100.00;100107.97;5027448;28;20297;-74
2024/03/23 00:52:42;;;;;;;10.10;3.40;;;;;;;7.91;100.00;100105.22;5023752;28;20245;-74
2024/03/23 00:55:09;;;;;;;5.73;2.70;;;;;;;7.92;100.00;100111.38;5026873;28;20293;-72
2024/03/23 00:57:36;;;;;;;9.07;4.03;;;;;;;7.92;100.00;100109.59;5023490;28;20213;-73
2024/03/23 01:00:02;;;;;;;6.20;2.60;;;;;;;7.94;100.00;100104.19;5026018;28;20589;-74
2024/03/23 01:02:29;;;;;;;6.70;2.60;;;;;;;7.93;100.00;100091.88;5025750;28;20237;-74
2024/03/23 01:04:54;;;;;;;9.23;3.93;;;;;;;7.93;100.00;100095.38;5026166;28;20296;-74
2024/03/23 01:07:21;;;;;;;4.60;2.93;;;;;;;7.94;100.00;100090.94;5026629;28;20769;-73
2024/03/23 01:09:47;;;;;;;8.87;2.50;;;;;;;7.94;100.00;100094.44;5029425;28;20326;-73
2024/03/23 01:12:15;;;;;;;8.57;3.00;;;;;;;7.93;100.00;100084.78;5025053;28;20325;-72
2024/03/23 01:14:40;;;;;;;6.57;2.40;;;;;;;7.93;100.00;100079.47;5025102;28;20662;-73
2024/03/23 01:17:07;;;;;;;4.77;2.60;;;;;;;7.91;100.00;100073.41;5023817;28;20202;-74
2024/03/23 01:19:32;;;;;;;6.57;3.23;;;;;;;7.93;100.00;100063.56;5027714;28;20290;-73
2024/03/23 01:21:59;;;;;;;9.30;3.20;;;;;;;7.91;100.00;100056.66;5025139;28;20234;-72
2024/03/23 01:24:25;;;;;;;10.63;3.50;;;;;;;7.89;100.00;100058.53;5025661;28;20245;-72
2024/03/23 01:26:51;;;;;;;8.83;4.43;;;;;;;7.87;100.00;100063.13;5023958;28;20299;-73
2024/03/23 01:29:18;;;;;;;6.40;3.30;;;;;;;7.83;100.00;100064.25;5023492;28;20234;-72
2024/03/23 01:31:45;;;;;;;9.67;3.10;;;;;;;7.82;100.00;100059.88;5023073;28;20854;-74
2024/03/23 01:34:11;;;;;;;8.97;3.90;;;;;;;7.80;100.00;100051.16;5027617;28;20217;-74
2024/03/23 01:36:37;;;;;;;7.53;3.30;;;;;;;7.81;100.00;100047.56;5024751;28;20206;-72
2024/03/23 01:39:03;;;;;;;7.87;2.90;;;;;;;7.82;100.00;100046.63;5025558;28;20582;-73
2024/03/23 01:41:30;;;;;;;9.20;3.57;;;;;;;7.80;100.00;100045.88;5024553;28;20359;-73
2024/03/23 01:43:56;;;;;;;6.87;3.83;;;;;;;7.80;100.00;100043.22;5028291;28;20213;-72
2024/03/23 01:46:24;;;;;;;6.87;2.90;;;;;;;7.82;100.00;100042.19;5028933;28;20206;-72
2024/03/23 01:48:50;;;;;;;8.40;3.37;;;;;;;7.79;100.00;100045.00;5029586;28;20776;-73
2024/03/23 01:51:17;;;;;;;8.03;2.90;;;;;;;7.77;100.00;100033.66;5026800;28;20305;-72
2024/03/23 01:53:42;;;;;;;13.80;4.20;;;;;;;7.77;100.00;100032.78;5026871;28;20317;-73
2024/03/23 01:56:09;;;;;;;6.87;3.20;;;;;;;7.75;100.00;100032.03;5023645;28;20307;-73
2024/03/23 01:58:35;;;;;;;6.73;4.23;;;;;;;7.73;100.00;100024.16;5026836;28;20344;-74
2024/03/23 02:01:01;;;;;;;6.53;3.30;;;;;;;7.72;100.00;100022.47;5024636;28;20331;-72
2024/03/23 02:03:28;;;;;;;9.00;3.37;;;;;;;7.72;100.00;100013.66;5028421;28;20664;-73
2024/03/23 02:05:55;;;;;;;8.90;3.30;;;;;;;7.72;100.00;100019.81;5022175;28;20323;-73
2024/03/23 02:08:22;;;;;;;9.40;3.53;;;;;;;7.71;100.00;100018.09;5025838;28;20230;-73
2024/03/23 02:10:50;;;;;;;8.07;2.83;;;;;;;7.72;100.00;100011.00;5031841;28;20207;-73
2024/03/23 02:13:16;;;;;;;12.47;4.03;;;;;;;7.71;100.00;100007.50;5025079;28;20528;-73
2024/03/23 02:15:43;;;;;;;10.93;3.70;;;;;;;7.70;100.00;100003.19;5024134;28;20289;-72
2024/03/23 02:18:09;;;;;;;7.77;2.87;;;;;;;7.70;100.00;100002.34;5025244;28;20653;-74
2024/03/23 02:20:37;;;;;;;6.57;3.13;;;;;;;7.67;100.00;99995.41;5026968;28;20301;-74
2024/03/23 02:23:05;;;;;;;8.77;3.30;;;;;;;7.65;100.00;99995.50;5022894;28;20305;-73
2024/03/23 02:25:32;;;;;;;8.80;3.57;;;;;;;7.63;100.00;99996.53;5020852;28;20434;-75
2024/03/23 02:27:58;;;;;;;9.83;3.23;;;;;;;7.63;100.00;99993.91;5026183;28;20828;-72
2024/03/23 02:30:25;;;;;;;8.07;3.33;;;;;;;7.63;100.00;99989.44;5024335;28;20206;-73
2024/03/23 02:32:51;;;;;;;9.33;3.30;;;;;;;7.62;100.00;99982.44;5023640;28;20317;-72
2024/03/23 02:35:17;;;;;;;8.47;2.90;;;;;;;7.63;100.00;99984.16;5023348;28;20305;-73
2024/03/23 02:37:43;;;;;;;8.67;3.90;;;;;;;7.60;100.00;99984.31;5026866;28;20198;-72
2024/03/23 02:40:11;;;;;;;8.43;4.00;;;;;;;7.58;100.00;99970.31;5025559;28;20737;-73
2024/03/23 02:42:37;;;;;;;6.47;3.20;;;;;;;7.57;100.00;99968.63;5338152;22;20275;-71
2024/03/23 02:45:04;;;;;;;9.00;3.67;;;;;;;7.58;100.00;99974.75;5025537;28;20301;-71
2024/03/23 02:47:30;;;;;;;6.73;3.20;;;;;;;7.57;100.00;99973.91;5018186;28;20209;-70
2024/03/23 02:49:57;;;;;;;6.10;3.30;;;;;;;7.57;100.00;99963.31;5029230;28;20218;-71
2024/03/23 02:52:22;;;;;;;9.40;3.40;;;;;;;7.55;100.00;99959.91;5021313;28;20453;-71
2024/03/23 02:54:49;;;;;;;5.60;2.90;;;;;;;7.50;100.00;99959.34;5008190;28;20298;-71
2024/03/23 02:57:16;;;;;;;10.50;3.40;;;;;;;7.48;100.00;99957.75;5003754;28;20290;-70
2024/03/23 02:59:43;;;;;;;5.43;2.97;;;;;;;7.45;100.00;99958.78;5009225;28;20206;-69
2024/03/23 03:02:08;;;;;;;10.70;3.23;;;;;;;7.45;100.00;99949.97;5006142;28;20221;-69
2024/03/23 03:04:35;;;;;;;6.33;3.20;;;;;;;7.46;100.00;99955.19;5009340;28;20293;-71
2024/03/23 03:07:01;;;;;;;6.50;3.50;;;;;;;7.45;100.00;99947.34;5006338;28;20301;-70
2024/03/23 03:09:27;;;;;;;7.07;3.27;;;;;;;7.45;100.00;99942.03;5006308;28;20247;-71
2024/03/23 03:11:53;;;;;;;6.23;3.47;;;;;;;7.45;100.00;99934.94;5007420;28;20214;-70
2024/03/23 03:14:21;;;;;;;7.53;3.43;;;;;;;7.46;100.00;99941.09;5007369;28;20223;-70
2024/03/23 03:16:47;;;;;;;10.27;3.70;;;;;;;7.46;100.00;99939.28;5006634;28;20689;-71
2024/03/23 03:19:13;;;;;;;10.10;3.73;;;;;;;7.47;100.00;99935.69;5007064;28;20635;-70
2024/03/23 03:21:39;;;;;;;8.30;4.03;;;;;;;7.47;100.00;99934.84;5007632;28;20301;-71
2024/03/23 03:24:07;;;;;;;6.13;3.63;;;;;;;7.46;100.00;99941.94;5005722;28;20233;-71
2024/03/23 03:26:33;;;;;;;7.40;3.97;;;;;;;7.47;100.00;99937.50;5006467;28;20489;-71
2024/03/23 03:29:00;;;;;;;7.20;3.90;;;;;;;7.48;100.00;99923.31;5005309;28;20691;-70
2024/03/23 03:31:27;;;;;;;9.97;4.77;;;;;;;7.48;100.00;99921.50;5007846;28;20289;-70
2024/03/23 03:33:54;;;;;;;9.77;4.30;;;;;;;7.45;100.00;99937.59;5008086;28;20227;-71
2024/03/23 03:36:19;;;;;;;9.27;4.60;;;;;;;7.41;100.00;99936.06;5006829;28;20207;-71
2024/03/23 03:38:46;;;;;;;9.63;4.77;;;;;;;7.41;100.00;99938.72;5005862;28;20202;-72
2024/03/23 03:41:12;;;;;;;11.57;5.17;;;;;;;7.38;100.00;99933.59;5006598;28;20209;-71
2024/03/23 03:43:39;;;;;;;7.00;4.00;;;;;;;7.37;100.00;99942.50;5005760;28;20311;-72
2024/03/23 03:46:04;;;;;;;8.73;4.50;;;;;;;7.36;100.00;99940.78;5007774;28;20210;-68
2024/03/23 03:48:32;;;;;;;10.30;5.07;;;;;;;7.35;100.00;99935.56;5002439;28;20207;-72
2024/03/23 03:50:58;;;;;;;9.93;5.20;;;;;;;7.36;100.00;99934.63;5007132;28;20291;-72
2024/03/23 03:53:24;;;;;;;7.30;4.30;;;;;;;7.34;100.00;99928.59;5007505;28;20318;-71
2024/03/23 03:55:50;;;;;;;6.23;4.20;;;;;;;7.35;100.00;99931.13;5006769;28;20217;-72
2024/03/23 03:58:17;;;;;;;8.60;3.57;;;;;;;7.30;100.00;99931.44;5007924;28;20215;-71
2024/03/23 04:00:42;;;;;;;8.80;3.87;;;;;;;7.28;100.00;99930.69;5005898;28;20205;-72
2024/03/23 04:03:09;;;;;;;6.70;3.77;;;;;;;7.27;100.00;99921.03;5008101;28;20313;-71
2024/03/23 04:05:36;;;;;;;7.70;4.03;;;;;;;7.25;100.00;99924.72;5004593;28;20302;-72
2024/03/23 04:08:04;;;;;;;7.63;4.10;;;;;;;7.22;100.00;99916.94;4999391;28;20219;-71
2024/03/23 04:10:29;;;;;;;9.07;4.30;;;;;;;7.21;100.00;99923.19;5002518;28;20219;-71
2024/03/23 04:12:56;;;;;;;10.80;4.10;;;;;;;7.22;100.00;99919.59;5006936;28;20238;-72
2024/03/23 04:15:22;;;;;;;5.73;2.90;;;;;;;7.18;100.00;99915.44;5004221;28;20207;-71
2024/03/23 04:17:48;;;;;;;7.47;2.93;;;;;;;7.11;100.00;99908.81;5002091;28;20274;-71
2024/03/23 04:20:16;;;;;;;7.17;3.17;;;;;;;7.06;100.00;99908.25;5006843;28;20213;-71
2024/03/23 04:22:44;;;;;;;8.07;3.33;;;;;;;7.03;100.00;99914.56;5007436;28;20602;-71
2024/03/23 04:25:10;;;;;;;8.37;2.90;;;;;;;7.02;100.00;99902.28;5005876;28;20294;-71
2024/03/23 04:27:37;;;;;;;5.60;4.07;;;;;;;7.02;100.00;99902.28;5005946;28;20295;-72
2024/03/23 04:30:04;;;;;;;8.93;3.27;;;;;;;6.99;100.00;99906.91;5007285;28;20222;-71
2024/03/23 04:32:31;;;;;;;7.80;3.80;;;;;;;6.95;100.00;99901.81;5006609;28;20235;-71
2024/03/23 04:34:57;;;;;;;7.70;3.03;;;;;;;6.95;100.00;99895.66;5007311;28;20650;-71
2024/03/23 04:37:23;;;;;;;5.10;2.33;;;;;;;6.94;100.00;99896.59;5006533;28;20203;-71
2024/03/23 04:39:52;;;;;;;6.30;1.97;;;;;;;6.92;100.00;99888.75;5007629;28;20307;-71
2024/03/23 04:42:18;;;;;;;8.33;2.50;;;;;;;6.90;100.00;99895.06;5004215;28;20294;-70
2024/03/23 04:44:45;;;;;;;5.10;1.80;;;;;;;6.85;100.00;99884.75;5006943;28;20305;-71
2024/03/23 04:47:12;;;;;;;8.10;2.10;;;;;;;6.84;100.00;99874.25;5006775;28;20210;-73
2024/03/23 04:49:38;;;;;;;6.43;1.97;;;;;;;6.83;100.00;99877.84;5007696;28;20226;-72
2024/03/23 04:52:06;;;;;;;9.90;2.60;;;;;;;6.82;100.00;99873.50;5008353;28;20914;-71
2024/03/23 04:54:32;;;;;;;5.53;1.90;;;;;;;6.79;100.00;99879.00;5008163;28;20686;-71
2024/03/23 04:57:00;;;;;;;5.80;2.20;;;;;;;6.77;100.00;99880.88;5007612;28;20488;-71
2024/03/23 04:59:26;;;;;;;4.97;1.60;;;;;;;6.75;100.00;99873.03;5004907;28;20293;-72
2024/03/23 05:01:52;;;;;;;7.73;2.07;;;;;;;6.75;100.00;99870.38;5002403;28;20303;-72
2024/03/23 05:04:18;;;;;;;6.17;1.90;;;;;;;6.72;100.00;99873.22;5003804;28;20223;-71
2024/03/23 05:06:45;;;;;;;5.63;2.57;;;;;;;6.71;100.00;99878.59;5006155;28;20297;-71
2024/03/23 05:09:11;;;;;;;7.37;2.90;;;;;;;6.70;100.00;99868.94;5002772;28;20313;-72
2024/03/23 05:11:38;;;;;;;5.20;1.97;;;;;;;6.71;100.00;99865.38;5007124;28;20325;-71
2024/03/23 05:14:05;;;;;;;9.60;2.17;;;;;;;6.69;100.00;99864.59;5006022;28;20605;-72
2024/03/23 05:16:32;;;;;;;6.53;1.83;;;;;;;6.68;100.00;99868.19;5007825;28;20199;-71
2024/03/23 05:18:57;;;;;;;7.20;2.10;;;;;;;6.67;100.00;99866.47;5007778;28;20580;-71
2024/03/23 05:21:24;;;;;;;5.27;2.20;;;;;;;6.66;100.00;99859.50;5006688;28;20210;-72
2024/03/23 05:23:49;;;;;;;6.30;2.70;;;;;;;6.66;100.00;99852.41;5003540;28;20241;-71
2024/03/23 05:26:16;;;;;;;6.03;2.00;;;;;;;6.67;100.00;99855.91;5004420;28;20301;-71
2024/03/23 05:28:42;;;;;;;8.23;2.70;;;;;;;6.67;100.00;99848.81;5008053;28;20637;-72
2024/03/23 05:31:09;;;;;;;5.93;2.83;;;;;;;6.67;100.00;99851.47;5001748;28;20324;-71
2024/03/23 05:33:37;;;;;;;6.27;2.43;;;;;;;6.67;100.00;99854.09;5007219;28;20227;-70
2024/03/23 05:36:05;;;;;;;6.23;2.53;;;;;;;6.68;100.00;99874.34;5001461;28;20207;-72
2024/03/23 05:38:31;;;;;;;8.63;2.90;;;;;;;6.69;100.00;99868.09;5008011;28;20242;-72
2024/03/23 05:40:58;;;;;;;6.60;2.50;;;;;;;6.69;100.00;99873.38;5006982;28;20237;-71
2024/03/23 05:43:24;;;;;;;8.30;2.83;;;;;;;6.68;100.00;99881.41;5006047;28;20357;-71
2024/03/23 05:45:55;;;;;;;8.27;2.57;;;;;;;6.67;100.00;99875.28;5004863;28;20211;-71
2024/03/23 05:48:22;;;;;;;5.53;2.00;;;;;;;6.66;100.00;99870.91;5007550;28;20298;-71
2024/03/23 05:50:49;;;;;;;11.13;3.17;;;;;;;6.66;100.00;99872.72;5007184;28;20223;-71
2024/03/23 05:53:14;;;;;;;9.70;2.63;;;;;;;6.63;100.00;99876.38;5007142;28;20616;-70
2024/03/23 05:55:41;;;;;;;6.67;2.20;;;;;;;6.60;100.00;99869.50;5005451;28;20295;-71
2024/03/23 05:58:07;;;;;;;7.10;2.33;;;;;;;6.57;100.00;99871.47;5000467;28;20657;-71
2024/03/23 06:00:33;;;;;;;5.30;1.97;;;;;;;6.50;100.00;99875.41;5004201;28;20290;-71
2024/03/23 06:02:59;;;;;;;6.30;2.00;;;;;;;6.48;100.00;99875.50;5003848;28;20218;-72
2024/03/23 06:05:27;;;;;;;5.70;1.37;;;;;;;6.44;100.00;99862.56;5006213;28;20751;-70
2024/03/23 06:07:53;;;;;;;6.77;1.13;;;;;;;6.34;100.00;99877.25;5004495;28;20286;-71
2024/03/23 06:10:19;;;;;;;5.50;1.20;;;;;;;6.22;100.00;99869.13;5006040;28;20674;-71
2024/03/23 06:12:46;;;;;;;3.13;1.50;;;;;;;6.15;100.00;99870.41;5005036;28;20470;-71
2024/03/23 06:15:12;;;;;;;9.50;2.17;;;;;;;6.08;99.11;99866.41;5004832;28;20199;-70
2024/03/23 06:17:38;;;;;;;5.53;1.17;;;;;;;6.05;98.76;99876.31;5005996;28;20298;-71
2024/03/23 06:20:06;;;;;;;4.17;1.63;;;;;;;6.01;99.45;99870.34;5005942;28;20213;-71
2024/03/23 06:22:33;;;;;;;5.77;1.20;;;;;;;5.99;100.00;99872.22;5005283;28;20219;-70
2024/03/23 06:25:00;;;;;;;8.60;1.53;;;;;;;6.02;100.00;99872.03;5002673;28;20286;-70
2024/03/23 06:27:25;;;;;;;4.80;1.23;;;;;;;6.03;100.00;99868.47;5006339;28;20211;-71
2024/03/23 06:29:52;;;;;;;6.40;2.40;;;;;;;6.06;100.00;99862.16;5003329;28;20728;-71
2024/03/23 06:32:18;;;;;;;7.37;1.90;;;;;;;6.10;100.00;99861.88;5006321;28;20289;-71
2024/03/23 06:34:45;;;;;;;7.27;1.97;;;;;;;6.13;100.00;99861.69;5006305;28;20298;-70
2024/03/23 06:37:11;;;;;;;8.40;1.90;;;;;;;6.17;100.00;99865.88;5005352;28;20199;-71
2024/03/23 06:39:39;;;;;;;7.77;1.97;;;;;;;6.20;100.00;99870.13;5002484;28;20201;-70
2024/03/23 06:42:05;;;;;;;8.00;1.80;;;;;;;6.21;100.00;99871.84;5006507;28;20245;-71
2024/03/23 06:44:32;;;;;;;4.47;1.70;;;;;;;6.23;100.00;99873.47;5003367;28;20218;-71
2024/03/23 06:46:58;;;;;;;5.57;1.77;;;;;;;6.26;100.00;99870.66;5007381;28;20290;-71
2024/03/23 06:49:24;;;;;;;7.63;2.43;;;;;;;6.28;100.00;99870.53;5001656;28;20319;-71
2024/03/23 06:51:50;;;;;;;5.77;1.80;;;;;;;6.27;100.00;99867.03;5003504;28;20231;-71
2024/03/23 06:54:17;;;;;;;9.47;2.00;;;;;;;6.27;100.00;99872.31;5000331;28;20654;-71
2024/03/23 06:56:45;;;;;;;7.07;1.80;;;;;;;6.26;100.00;99867.16;5001495;28;20295;-71
2024/03/23 06:59:12;;;;;;;6.63;1.93;;;;;;;6.23;100.00;99873.47;4999740;28;20266;-71
2024/03/23 07:01:37;;;;;;;7.17;1.67;;;;;;;6.18;100.00;99862.28;5004331;28;20286;-72
2024/03/23 07:04:04;;;;;;;6.33;2.07;;;;;;;6.15;100.00;99873.03;5001664;28;20314;-71
2024/03/23 07:06:30;;;;;;;6.77;1.77;;;;;;;6.16;100.00;99868.59;5005124;28;20209;-71
2024/03/23 07:08:57;;;;;;;5.53;1.60;;;;;;;6.15;100.00;99875.69;5003710;28;20203;-72
2024/03/23 07:11:23;;;;;;;5.10;1.40;;;;;;;6.15;100.00;99878.31;5005856;28;20278;-71
2024/03/23 07:13:54;;;;;;;7.27;1.80;;;;;;;6.15;100.00;99880.13;5002760;28;20458;-71
2024/03/23 07:16:20;;;;;;;6.63;1.60;;;;;;;6.14;100.00;99876.63;5002671;28;20211;-72
2024/03/23 07:18:47;;;;;;;5.00;1.43;;;;;;;6.13;100.00;99868.78;5004221;28;20230;-72
2024/03/23 07:21:15;;;;;;;10.10;1.83;;;;;;;6.15;100.00;99865.09;5003285;28;20313;-71
2024/03/23 07:23:44;;;;;;;6.73;1.80;;;;;;;6.18;100.00;99866.72;5001251;28;20764;-71
2024/03/23 07:26:10;;;;;;;8.27;2.43;;;;;;;6.20;100.00;99862.19;5004871;28;20206;-71
2024/03/23 07:28:37;;;;;;;6.77;1.93;;;;;;;6.18;100.00;99867.56;5007522;28;20210;-71
2024/03/23 07:31:06;;;;;;;8.17;2.20;;;;;;;6.20;100.00;99864.84;5002928;28;20273;-71
2024/03/23 07:33:33;;;;;;;6.67;1.70;;;;;;;6.21;100.00;99863.91;5002897;28;20223;-71
2024/03/23 07:35:59;;;;;;;6.83;1.93;;;;;;;6.21;100.00;99877.13;5003695;28;20579;-71
2024/03/23 07:38:28;;;;;;;9.93;2.20;;;;;;;6.22;100.00;99874.41;5010533;28;20290;-71
2024/03/23 07:41:02;;;;;;;7.13;2.33;;;;;;;6.22;100.00;99873.56;5008807;28;20246;-72
2024/03/23 07:43:29;;;;;;;9.80;2.90;;;;;;;6.27;100.00;99882.91;5005593;28;20226;-71
2024/03/23 07:45:55;;;;;;;6.07;2.40;;;;;;;6.28;100.00;99883.75;5007088;28;20297;-72
2024/03/23 07:48:23;;;;;;;11.73;2.87;;;;;;;6.28;100.00;99879.31;5007870;28;20661;-71
2024/03/23 07:50:59;;;;;;;7.97;2.80;;;;;;;6.28;100.00;99879.31;5007140;28;20534;-71
2024/03/23 07:53:26;;;;;;;7.83;2.07;;;;;;;6.30;100.00;99878.38;5007860;28;20258;-71
2024/03/23 07:55:55;;;;;;;6.73;2.00;;;;;;;6.34;100.00;99871.97;5007491;28;20209;-71
2024/03/23 07:58:21;;;;;;;6.37;3.10;;;;;;;6.35;100.00;99866.59;5009556;28;20213;-71
2024/03/23 08:00:48;;;;;;;6.20;2.53;;;;;;;6.35;100.00;99869.25;5009083;28;20294;-72
2024/03/23 08:03:13;;;;;;;7.23;2.43;;;;;;;6.34;100.00;99859.59;5007231;28;20683;-72
2024/03/23 08:05:41;;;;;;;7.40;2.43;;;;;;;6.38;100.00;99869.06;5006470;28;20513;-72
2024/03/23 08:08:07;;;;;;;6.67;2.80;;;;;;;6.37;100.00;99872.66;5003713;28;20207;-71
2024/03/23 08:10:34;;;;;;;14.80;3.73;;;;;;;6.38;100.00;99865.56;5009830;28;20218;-72
2024/03/23 08:13:00;;;;;;;8.37;3.30;;;;;;;6.42;100.00;99869.75;5008064;28;20312;-71
2024/03/23 08:15:26;;;;;;;7.70;3.50;;;;;;;6.45;100.00;99862.47;5009270;28;20290;-71
2024/03/23 08:17:52;;;;;;;12.27;4.27;;;;;;;6.50;100.00;99867.47;5007406;28;20294;-71
2024/03/23 08:20:19;;;;;;;12.17;4.17;;;;;;;6.48;100.00;99866.72;5006527;28;20205;-71
2024/03/23 08:22:46;;;;;;;13.80;4.30;;;;;;;6.47;100.00;99870.31;5003298;28;20226;-72
2024/03/23 08:25:13;;;;;;;14.97;4.70;;;;;;;6.44;100.00;99868.72;5005706;28;20293;-71
2024/03/23 08:27:38;;;;;;;12.30;4.50;;;;;;;6.44;100.00;99865.22;5008145;28;20641;-71
2024/03/23 08:30:07;;;;;;;13.17;5.17;;;;;;;6.47;100.00;99865.88;5002836;28;20350;-71
2024/03/23 08:32:32;;;;;;;10.23;4.20;;;;;;;6.52;100.00;99866.47;5004117;28;20230;-71
2024/03/23 08:34:59;;;;;;;12.53;4.20;;;;;;;6.59;100.00;99873.09;5004252;28;20212;-71
2024/03/23 08:37:25;;;;;;;9.20;4.50;;;;;;;6.60;100.00;99871.31;5002694;28;20215;-72
2024/03/23 08:39:53;;;;;;;10.30;4.27;;;;;;;6.66;100.00;99876.22;5006007;28;20660;-72
2024/03/23 08:42:19;;;;;;;14.33;4.90;;;;;;;6.68;100.00;99878.78;5001999;28;20229;-72
2024/03/23 08:44:49;;;;;;;11.50;6.83;;;;;;;6.72;100.00;99875.84;5052949;22;20240;-81
2024/03/23 08:47:15;;;;;;;14.43;6.13;;;;;;;6.78;100.00;99877.31;5057797;28;20202;-81
2024/03/23 08:49:41;;;;;;;13.03;6.70;;;;;;;6.82;100.00;99874.34;5054285;28;20236;-79
2024/03/23 08:52:07;;;;;;;16.80;6.93;;;;;;;6.92;100.00;99872.88;5055195;28;20274;-80
2024/03/23 08:54:34;;;;;;;14.13;6.47;;;;;;;6.97;100.00;99878.75;5055700;28;20198;-81
2024/03/23 08:57:01;;;;;;;15.63;6.97;;;;;;;7.06;100.00;99879.13;5048774;28;20206;-81
2024/03/23 08:59:28;;;;;;;15.37;6.37;;;;;;;7.18;100.00;99881.00;5059454;28;20284;-81
2024/03/23 09:01:53;;;;;;;15.43;5.90;;;;;;;7.26;100.00;99882.25;5059026;28;20273;-80
2024/03/23 09:04:21;;;;;;;12.73;5.10;;;;;;;7.33;100.00;99885.38;5054754;28;20204;-80
2024/03/23 09:06:47;;;;;;;20.07;5.80;;;;;;;7.42;100.00;99892.72;5055172;28;21264;-80
2024/03/23 09:09:13;;;;;;;12.47;5.07;;;;;;;7.44;100.00;99885.53;5052463;28;20198;-82
2024/03/23 09:11:39;;;;;;;14.80;5.10;;;;;;;7.48;100.00;99887.06;5051277;28;20322;-82
2024/03/23 09:14:07;;;;;;;12.20;4.73;;;;;;;7.57;100.00;99886.47;5049689;28;20232;-82
2024/03/23 09:16:32;;;;;;;13.03;6.07;;;;;;;7.63;100.00;99883.44;5051225;28;20268;-81
2024/03/23 09:18:59;;;;;;;14.77;4.57;;;;;;;7.69;98.93;99876.91;5052521;28;20637;-81
2024/03/23 09:21:25;;;;;;;9.23;3.73;;;;;;;7.65;97.28;99878.06;5051225;28;20263;-81
2024/03/23 09:23:51;;;;;;;9.57;3.87;;;;;;;7.58;93.73;99885.53;5053657;28;20653;-81
2024/03/23 09:26:17;;;;;;;12.70;4.00;;;;;;;7.49;92.90;99886.13;5046886;28;20236;-80
2024/03/23 09:28:44;;;;;;;11.23;4.80;;;;;;;7.47;94.61;99884.50;5048658;28;20237;-80
2024/03/23 09:31:14;;;;;;;10.97;3.57;;;;;;;7.52;95.96;99890.38;5050096;28;20233;-82
2024/03/23 09:33:40;;;;;;;9.57;3.90;;;;;;;7.54;96.51;99896.41;5050372;28;20736;-82
2024/03/23 09:36:07;;;;;;;11.57;4.17;;;;;;;7.65;96.21;99900.09;5049936;28;20198;-80
2024/03/23 09:38:34;;;;;;;8.23;4.27;;;;;;;7.74;97.94;99895.16;5050246;28;20308;-81
2024/03/23 09:41:00;;;;;;;14.50;4.40;;;;;;;7.88;97.88;99889.84;5055722;28;20244;-81
2024/03/23 09:43:27;;;;;;;9.17;4.47;;;;;;;7.98;97.87;99882.97;5051439;28;20210;-80
2024/03/23 09:45:53;;;;;;;13.90;3.83;;;;;;;8.05;95.69;99886.09;5050687;28;20735;-81
2024/03/23 09:48:21;;;;;;;9.10;3.83;;;;;;;8.08;94.00;99880.56;5057540;28;20206;-80
2024/03/23 09:50:48;;;;;;;10.33;3.50;;;;;;;8.09;91.92;99885.78;5061587;28;20231;-80
2024/03/23 09:53:15;;;;;;;7.50;3.43;;;;;;;8.14;92.36;99882.84;5063403;28;20236;-80
2024/03/23 09:55:43;;;;;;;11.27;5.13;;;;;;;8.14;89.48;99883.69;5063912;28;20205;-80
2024/03/23 09:58:13;;;;;;;12.23;4.40;;;;;;;8.14;90.07;99883.69;5062837;28;20209;-80
2024/03/23 10:00:39;;;;;;;15.30;4.47;;;;;;;8.16;92.72;99881.78;5061511;28;20228;-79
2024/03/23 10:03:07;;;;;;;14.43;5.17;;;;;;;8.17;87.98;99878.19;5062218;28;20206;-80
2024/03/23 10:05:34;;;;;;;8.90;3.33;;;;;;;8.12;86.70;99885.56;5059771;28;20202;-81
2024/03/23 10:08:01;;;;;;;10.07;3.33;;;;;;;8.12;87.66;99874.13;5056372;28;20209;-80
2024/03/23 10:10:27;;;;;;;12.50;4.60;;;;;;;8.08;86.07;99881.41;5057297;28;20569;-81
2024/03/23 10:12:53;;;;;;;12.13;5.00;;;;;;;8.12;86.82;99876.78;5056913;28;20252;-80
2024/03/23 10:15:21;;;;;;;13.80;4.43;;;;;;;8.25;90.20;99873.19;5058557;28;20704;-80
2024/03/23 10:17:48;;;;;;;11.00;4.70;;;;;;;8.33;89.06;99865.63;5060974;28;20225;-81
2024/03/23 10:20:19;;;;;;;10.70;4.03;;;;;;;8.45;89.10;99856.00;5059702;28;20237;-81
2024/03/23 10:22:47;;;;;;;12.23;3.60;;;;;;;8.52;87.62;99853.78;5059095;28;20228;-80
2024/03/23 10:25:13;;;;;;;10.13;3.50;;;;;;;8.53;85.80;99866.09;5051218;28;20206;-81
2024/03/23 10:27:40;;;;;;;10.50;3.93;;;;;;;8.45;83.44;99853.34;5047281;28;20263;-80
2024/03/23 10:30:10;;;;;;;5.57;3.40;;;;;;;8.42;84.19;99844.75;5050810;28;20316;-80
2024/03/23 10:32:37;;;;;;;9.40;3.53;;;;;;;8.44;84.19;99850.78;5051370;28;20221;-80
2024/03/23 10:35:14;;;;;;;5.30;3.00;;;;;;;8.52;85.23;99846.69;5045895;28;20265;-81
2024/03/23 10:37:41;;;;;;;8.50;3.17;;;;;;;8.64;84.83;99845.84;5054060;28;20809;-81
2024/03/23 10:40:11;;;;;;;8.27;3.33;;;;;;;8.74;84.75;99850.53;5054743;28;20670;-81
2024/03/23 10:42:38;;;;;;;7.57;3.10;;;;;;;8.85;84.24;99843.53;5058010;28;20633;-82
2024/03/23 10:45:05;;;;;;;7.20;3.20;;;;;;;9.00;85.32;99837.13;5049014;28;20245;-81
2024/03/23 10:47:32;;;;;;;10.17;3.30;;;;;;;9.11;82.30;99843.53;5051962;28;20205;-80
2024/03/23 10:49:58;;;;;;;7.57;3.30;;;;;;;9.20;83.92;99832.25;5054950;28;20292;-81
2024/03/23 10:52:24;;;;;;;8.77;4.43;;;;;;;9.29;81.76;99837.78;5055552;28;20550;-81
2024/03/23 10:54:51;;;;;;;11.00;3.63;;;;;;;9.31;80.15;99841.16;5056816;28;20217;-81
2024/03/23 10:57:25;;;;;;;5.83;2.27;;;;;;;9.33;78.22;99864.94;5057486;28;20231;-81
2024/03/23 10:59:51;;;;;;;4.40;1.13;;;;;;;9.20;70.88;99862.31;5051557;28;20205;-80
2024/03/23 11:02:21;;;;;;;1.67;0.90;;;;;;;9.01;71.10;99859.25;5055778;28;20255;-80
2024/03/23 11:04:48;;;;;;;1.43;0.80;;;;;;;8.85;70.97;99854.13;5052487;28;20229;-80
2024/03/23 11:07:31;;;;;;;1.53;1.00;;;;;;;8.70;68.89;99852.53;5049643;28;20210;-81
2024/03/23 11:09:57;;;;;;;1.93;1.00;;;;;;;8.62;68.56;99847.75;5052026;28;20211;-80
2024/03/23 11:12:33;;;;;;;2.37;1.00;;;;;;;8.58;69.62;99840.13;5058910;28;20236;-80
2024/03/23 11:15:03;;;;;;;2.50;1.17;;;;;;;8.63;71.66;99845.94;5054750;28;20197;-80
2024/03/23 11:17:30;;;;;;;3.60;1.70;;;;;;;8.70;72.76;99844.56;5053995;28;20205;-81
2024/03/23 11:19:57;;;;;;;4.97;2.13;;;;;;;8.79;73.55;99837.78;5068195;28;20201;-80
2024/03/23 11:22:49;;;;;;;4.47;1.80;;;;;;;8.93;76.16;99841.19;5070883;28;20244;-80
2024/03/23 11:25:16;;;;;;;6.37;2.30;;;;;;;9.05;75.86;99836.84;5050588;28;20213;-80
2024/03/23 11:27:44;;;;;;;9.30;2.23;;;;;;;9.17;76.79;99827.13;5064339;28;20233;-80
2024/03/23 11:30:16;;;;;;;6.03;2.00;;;;;;;9.25;77.54;99823.00;5063577;28;20233;-80